createdAt,value
2017-08-01T00:00:37.175Z,21.90
2017-08-01T00:03:04.766Z,21.50
2017-08-01T00:05:31.729Z,21.50
2017-08-01T00:07:58.592Z,21.70
2017-08-01T00:10:25.461Z,21.50
2017-08-01T00:12:52.444Z,21.50
2017-08-01T00:15:19.295Z,21.60
2017-08-01T00:17:46.227Z,21.60
2017-08-01T00:20:13.830Z,21.60
2017-08-01T00:22:40.708Z,21.60
2017-08-01T00:25:07.636Z,21.40
2017-08-01T00:27:34.489Z,21.40
2017-08-01T00:30:01.328Z,21.50
2017-08-01T00:32:28.271Z,21.40
2017-08-01T00:34:55.192Z,21.30
2017-08-01T00:37:22.042Z,21.40
2017-08-01T00:39:48.956Z,21.30
2017-08-01T00:42:15.811Z,21.20
2017-08-01T00:44:42.672Z,21.00
2017-08-01T00:47:09.599Z,21.00
2017-08-01T00:49:36.435Z,20.90
2017-08-01T00:52:03.299Z,20.90
2017-08-01T00:54:30.245Z,21.10
2017-08-01T00:56:57.263Z,21.30
2017-08-01T00:59:25.014Z,21.50
2017-08-01T01:01:52.699Z,21.60
2017-08-01T01:04:19.552Z,21.60
2017-08-01T01:06:46.432Z,21.90
2017-08-01T01:09:13.355Z,21.90
2017-08-01T01:11:40.273Z,21.70
2017-08-01T01:14:07.132Z,21.80
2017-08-01T01:16:34.071Z,22.00
2017-08-01T01:19:00.920Z,22.00
2017-08-01T01:21:27.863Z,22.20
2017-08-01T01:23:54.715Z,22.20
2017-08-01T01:26:21.587Z,22.30
2017-08-01T01:28:48.543Z,22.50
2017-08-01T01:31:15.506Z,22.50
2017-08-01T01:33:42.411Z,22.60
2017-08-01T01:36:09.398Z,22.70
2017-08-01T01:38:36.335Z,22.60
2017-08-01T01:41:03.299Z,22.50
2017-08-01T01:43:30.251Z,21.90
2017-08-01T01:45:57.196Z,21.60
2017-08-01T01:48:24.267Z,21.30
2017-08-01T01:50:51.951Z,20.80
2017-08-01T01:53:18.827Z,20.80
2017-08-01T01:55:45.755Z,20.60
2017-08-01T01:58:12.600Z,20.70
2017-08-01T02:00:39.490Z,20.60
2017-08-01T02:03:06.422Z,20.00
2017-08-01T02:05:33.276Z,19.90
2017-08-01T02:08:00.158Z,19.90
2017-08-01T02:10:27.138Z,19.90
2017-08-01T02:12:54.024Z,20.00
2017-08-01T02:15:21.616Z,20.20
2017-08-01T02:17:48.579Z,20.10
2017-08-01T02:20:15.529Z,20.20
2017-08-01T02:22:42.508Z,19.90
2017-08-01T02:25:09.396Z,19.90
2017-08-01T02:27:36.294Z,19.80
2017-08-01T02:30:03.284Z,19.50
2017-08-01T02:32:30.124Z,19.40
2017-08-01T02:34:56.981Z,19.40
2017-08-01T02:37:23.916Z,19.30
2017-08-01T02:39:50.845Z,19.20
2017-08-01T02:42:18.459Z,18.90
2017-08-01T02:44:45.310Z,18.90
2017-08-01T02:47:12.203Z,18.80
2017-08-01T02:49:39.843Z,18.80
2017-08-01T02:52:06.767Z,18.80
2017-08-01T02:54:33.696Z,18.90
2017-08-01T02:57:00.643Z,19.00
2017-08-01T02:59:27.532Z,19.10
2017-08-01T03:01:55.181Z,19.20
2017-08-01T03:04:22.030Z,19.20
2017-08-01T03:06:48.951Z,19.30
2017-08-01T03:09:15.799Z,19.40
2017-08-01T03:11:42.623Z,19.60
2017-08-01T03:14:09.556Z,19.80
2017-08-01T03:16:36.414Z,19.90
2017-08-01T03:19:03.254Z,20.00
2017-08-01T03:21:30.174Z,20.10
2017-08-01T03:23:57.011Z,20.00
2017-08-01T03:26:24.586Z,20.20
2017-08-01T03:28:51.558Z,20.20
2017-08-01T03:31:18.408Z,20.30
2017-08-01T03:33:45.315Z,20.30
2017-08-01T03:36:12.239Z,20.30
2017-08-01T03:38:39.818Z,20.30
2017-08-01T03:41:06.666Z,20.30
2017-08-01T03:43:33.584Z,20.00
2017-08-01T03:46:00.454Z,20.00
2017-08-01T03:48:27.300Z,20.10
2017-08-01T03:50:54.194Z,20.10
2017-08-01T03:53:21.043Z,20.00
2017-08-01T03:55:48.040Z,20.00
2017-08-01T03:58:14.936Z,20.10
2017-08-01T04:00:41.794Z,20.10
2017-08-01T04:03:08.724Z,20.20
2017-08-01T04:05:35.638Z,20.10
2017-08-01T04:08:02.483Z,20.20
2017-08-01T04:10:29.324Z,20.20
2017-08-01T04:12:56.239Z,20.20
2017-08-01T04:15:23.831Z,20.00
2017-08-01T04:17:50.678Z,20.00
2017-08-01T04:20:17.587Z,20.20
2017-08-01T04:22:45.178Z,20.20
2017-08-01T04:25:12.180Z,20.20
2017-08-01T04:27:39.031Z,20.10
2017-08-01T04:30:05.877Z,20.10
2017-08-01T04:32:33.530Z,19.80
2017-08-01T04:35:00.380Z,19.80
2017-08-01T04:37:27.287Z,19.80
2017-08-01T04:39:54.142Z,19.90
2017-08-01T04:42:21.043Z,19.90
2017-08-01T04:44:59.924Z,20.00
2017-08-01T04:47:26.828Z,19.90
2017-08-01T04:49:53.669Z,20.10
2017-08-01T04:52:20.566Z,20.20
2017-08-01T04:54:47.483Z,20.40
2017-08-01T04:57:14.395Z,20.50
2017-08-01T04:59:41.242Z,20.50
2017-08-01T05:02:08.170Z,20.60
2017-08-01T05:04:35.751Z,20.50
2017-08-01T05:07:02.591Z,20.50
2017-08-01T05:09:29.584Z,20.30
2017-08-01T05:11:56.428Z,21.00
2017-08-01T05:14:23.286Z,20.60
2017-08-01T05:16:50.200Z,21.40
2017-08-01T05:19:17.074Z,22.70
2017-08-01T05:21:43.947Z,22.30
2017-08-01T05:24:11.591Z,21.60
2017-08-01T05:26:38.496Z,21.60
2017-08-01T05:29:05.353Z,21.10
2017-08-01T05:31:32.210Z,21.10
2017-08-01T05:33:59.159Z,20.60
2017-08-01T05:36:26.012Z,20.80
2017-08-01T05:38:52.860Z,20.90
2017-08-01T05:41:19.787Z,20.90
2017-08-01T05:43:46.658Z,20.80
2017-08-01T05:46:14.260Z,20.60
2017-08-01T05:48:41.243Z,20.50
2017-08-01T05:51:08.107Z,21.10
2017-08-01T05:53:35.698Z,21.30
2017-08-01T05:56:02.628Z,21.20
2017-08-01T05:58:30.228Z,21.40
2017-08-01T06:00:57.140Z,21.40
2017-08-01T06:03:24.063Z,21.40
2017-08-01T06:05:50.935Z,21.40
2017-08-01T06:08:17.792Z,21.50
2017-08-01T06:10:44.741Z,21.60
2017-08-01T06:13:11.647Z,21.60
2017-08-01T06:15:39.406Z,21.70
2017-08-01T06:18:06.259Z,21.70
2017-08-01T06:20:33.862Z,22.30
2017-08-01T06:23:00.810Z,22.30
2017-08-01T06:25:27.723Z,22.60
2017-08-01T06:27:55.311Z,23.20
2017-08-01T06:30:22.368Z,23.20
2017-08-01T06:32:49.271Z,23.50
2017-08-01T06:35:16.886Z,23.70
2017-08-01T06:37:43.855Z,23.70
2017-08-01T06:40:10.700Z,23.90
2017-08-01T06:42:37.625Z,24.00
2017-08-01T06:45:04.540Z,24.10
2017-08-01T06:47:31.443Z,24.20
2017-08-01T06:49:58.356Z,24.50
2017-08-01T06:52:25.219Z,24.70
2017-08-01T06:54:52.143Z,24.60
2017-08-01T06:57:18.998Z,24.40
2017-08-01T06:59:45.941Z,24.00
2017-08-01T07:02:12.840Z,24.10
2017-08-01T07:04:40.430Z,24.00
2017-08-01T07:07:07.384Z,24.00
2017-08-01T07:09:34.234Z,24.10
2017-08-01T07:12:01.199Z,24.30
2017-08-01T07:14:28.135Z,24.20
2017-08-01T07:16:55.160Z,24.40
2017-08-01T07:19:22.032Z,25.30
2017-08-01T07:21:55.862Z,25.60
2017-08-01T07:24:22.787Z,25.70
2017-08-01T07:26:49.642Z,25.60
2017-08-01T07:29:16.581Z,25.40
2017-08-01T07:31:43.443Z,25.50
2017-08-01T07:34:10.385Z,25.40
2017-08-01T07:36:37.305Z,25.50
2017-08-01T07:39:04.323Z,25.70
2017-08-01T07:41:31.254Z,25.70
2017-08-01T07:43:58.143Z,25.70
2017-08-01T07:48:58.649Z,25.80
2017-08-01T07:51:25.528Z,25.40
2017-08-01T07:53:52.507Z,25.20
2017-08-01T07:56:19.456Z,25.30
2017-08-01T07:58:46.328Z,25.80
2017-08-01T08:01:13.347Z,26.10
2017-08-01T08:03:40.242Z,26.70
2017-08-01T08:06:07.111Z,26.50
2017-08-01T08:08:34.076Z,26.70
2017-08-01T08:11:01.028Z,27.00
2017-08-01T08:13:28.645Z,27.10
2017-08-01T08:15:55.633Z,27.10
2017-08-01T08:18:22.532Z,26.90
2017-08-01T08:20:49.440Z,26.90
2017-08-01T08:23:17.223Z,27.10
2017-08-01T08:25:44.135Z,27.00
2017-08-01T08:28:11.062Z,27.50
2017-08-01T08:30:38.027Z,27.40
2017-08-01T08:33:04.911Z,27.60
2017-08-01T08:35:31.780Z,27.40
2017-08-01T08:37:58.737Z,27.40
2017-08-01T08:40:25.597Z,27.40
2017-08-01T08:42:52.512Z,27.20
2017-08-01T08:45:19.467Z,27.60
2017-08-01T08:47:46.416Z,27.50
2017-08-01T08:50:13.269Z,27.40
2017-08-01T08:52:40.137Z,28.40
2017-08-01T08:55:07.121Z,28.90
2017-08-01T08:57:33.988Z,28.70
2017-08-01T09:00:00.851Z,29.60
2017-08-01T09:02:27.861Z,30.20
2017-08-01T09:04:54.741Z,30.60
2017-08-01T09:07:21.611Z,31.90
2017-08-01T09:09:48.535Z,33.30
2017-08-01T09:12:15.487Z,34.20
2017-08-01T09:14:42.355Z,34.70
2017-08-01T09:17:09.296Z,34.70
2017-08-01T09:19:36.152Z,34.80
2017-08-01T09:22:03.855Z,35.00
2017-08-01T09:24:30.719Z,34.90
2017-08-01T09:26:57.700Z,35.20
2017-08-01T09:29:24.580Z,35.10
2017-08-01T09:31:51.745Z,34.80
2017-08-01T09:34:18.767Z,33.80
2017-08-01T09:36:45.633Z,33.40
2017-08-01T09:39:12.582Z,33.40
2017-08-01T09:41:39.895Z,33.10
2017-08-01T09:44:06.895Z,33.10
2017-08-01T09:46:33.841Z,32.80
2017-08-01T09:49:00.801Z,32.70
2017-08-01T09:51:27.702Z,33.10
2017-08-01T09:53:54.595Z,33.30
2017-08-01T09:56:21.532Z,32.80
2017-08-01T09:58:48.487Z,32.20
2017-08-01T10:01:15.356Z,31.80
2017-08-01T10:03:42.250Z,31.70
2017-08-01T10:06:09.276Z,31.80
2017-08-01T10:08:36.152Z,32.20
2017-08-01T10:11:03.024Z,32.40
2017-08-01T10:13:29.971Z,31.70
2017-08-01T10:15:56.870Z,31.70
2017-08-01T10:18:23.841Z,31.70
2017-08-01T10:20:50.699Z,32.30
2017-08-01T10:23:17.576Z,32.80
2017-08-01T10:25:44.530Z,32.60
2017-08-01T10:28:11.406Z,33.00
2017-08-01T10:30:38.268Z,33.10
2017-08-01T10:33:05.216Z,32.80
2017-08-01T10:35:32.085Z,33.30
2017-08-01T10:37:58.940Z,33.30
2017-08-01T10:40:25.856Z,33.70
2017-08-01T10:42:52.742Z,33.10
2017-08-01T10:45:19.771Z,32.90
2017-08-01T10:47:46.659Z,32.50
2017-08-01T10:50:13.564Z,32.10
2017-08-01T10:52:40.524Z,32.10
2017-08-01T10:55:08.191Z,32.30
2017-08-01T10:57:35.079Z,32.20
2017-08-01T11:00:02.071Z,32.40
2017-08-01T11:02:29.667Z,31.70
2017-08-01T11:04:56.595Z,31.70
2017-08-01T11:07:23.547Z,31.40
2017-08-01T11:09:50.493Z,31.00
2017-08-01T11:12:17.377Z,30.70
2017-08-01T11:14:44.315Z,30.40
2017-08-01T11:17:11.258Z,30.40
2017-08-01T11:19:38.161Z,30.60
2017-08-01T11:22:05.881Z,30.50
2017-08-01T11:24:32.784Z,30.50
2017-08-01T11:26:59.721Z,30.40
2017-08-01T11:29:27.439Z,30.40
2017-08-01T11:31:54.335Z,30.40
2017-08-01T11:34:21.243Z,30.90
2017-08-01T11:36:48.187Z,31.50
2017-08-01T11:39:15.088Z,32.00
2017-08-01T11:41:41.962Z,32.50
2017-08-01T11:44:08.895Z,32.80
2017-08-01T11:46:35.844Z,32.70
2017-08-01T11:49:02.736Z,32.90
2017-08-01T11:51:29.687Z,32.80
2017-08-01T11:53:57.320Z,33.00
2017-08-01T11:56:24.187Z,33.00
2017-08-01T11:58:51.129Z,32.50
2017-08-01T12:01:18.016Z,32.30
2017-08-01T12:03:44.896Z,32.50
2017-08-01T12:06:11.843Z,32.70
2017-08-01T12:08:38.752Z,32.40
2017-08-01T12:11:05.697Z,31.90
2017-08-01T12:13:32.667Z,31.60
2017-08-01T12:15:59.573Z,31.60
2017-08-01T12:18:26.468Z,31.30
2017-08-01T12:20:53.405Z,31.20
2017-08-01T12:23:20.337Z,31.10
2017-08-01T12:25:47.296Z,31.20
2017-08-01T12:28:14.177Z,31.40
2017-08-01T12:30:41.078Z,31.70
2017-08-01T12:33:08.021Z,31.70
2017-08-01T12:35:34.928Z,31.50
2017-08-01T12:38:02.626Z,31.20
2017-08-01T12:40:29.605Z,31.20
2017-08-01T12:42:56.481Z,30.90
2017-08-01T12:45:24.246Z,31.50
2017-08-01T12:47:51.852Z,31.20
2017-08-01T12:50:18.909Z,31.20
2017-08-01T12:52:45.796Z,31.20
2017-08-01T12:55:12.672Z,30.80
2017-08-01T12:57:39.596Z,30.70
2017-08-01T13:00:07.250Z,30.80
2017-08-01T13:02:34.947Z,30.50
2017-08-01T13:05:01.824Z,30.50
2017-08-01T13:07:28.695Z,30.20
2017-08-01T13:09:55.699Z,29.80
2017-08-01T13:29:43.233Z,28.10
2017-08-01T13:32:10.139Z,28.00
2017-08-01T13:34:37.823Z,27.60
2017-08-01T13:37:05.502Z,27.20
2017-08-01T13:39:32.381Z,27.20
2017-08-01T13:41:59.400Z,27.00
2017-08-01T13:44:26.260Z,26.60
2017-08-01T13:46:53.183Z,26.40
2017-08-01T13:49:20.175Z,26.30
2017-08-01T13:51:47.121Z,26.30
2017-08-01T13:54:13.984Z,26.00
2017-08-01T13:56:40.916Z,26.10
2017-08-01T13:59:07.781Z,26.00
2017-08-01T14:01:34.726Z,25.90
2017-08-01T14:04:02.327Z,25.80
2017-08-01T14:06:29.193Z,25.80
2017-08-01T14:08:56.155Z,25.80
2017-08-01T14:11:23.043Z,25.60
2017-08-01T14:13:50.683Z,25.40
2017-08-01T14:16:17.607Z,25.30
2017-08-01T14:18:44.483Z,25.20
2017-08-01T14:21:11.477Z,25.20
2017-08-01T14:23:38.399Z,25.20
2017-08-01T14:26:05.247Z,25.20
2017-08-01T14:28:32.088Z,25.20
2017-08-01T14:30:59.016Z,25.20
2017-08-01T14:33:26.634Z,25.00
2017-08-01T14:35:53.488Z,25.00
2017-08-01T14:38:20.445Z,24.80
2017-08-01T14:40:47.330Z,24.40
2017-08-01T14:43:14.181Z,24.60
2017-08-01T14:45:41.183Z,24.70
2017-08-01T14:48:08.096Z,24.90
2017-08-01T14:50:34.967Z,24.90
2017-08-01T14:53:01.891Z,25.30
2017-08-01T14:55:28.754Z,25.10
2017-08-01T14:57:55.604Z,25.30
2017-08-01T15:00:22.627Z,24.90
2017-08-01T15:02:49.492Z,24.90
2017-08-01T15:05:16.336Z,24.90
2017-08-01T15:07:43.280Z,25.00
2017-08-01T15:10:10.148Z,25.00
2017-08-01T15:12:37.008Z,25.00
2017-08-01T15:15:04.699Z,24.60
2017-08-01T15:17:31.577Z,24.60
2017-08-01T15:19:58.440Z,24.10
2017-08-01T15:22:25.356Z,24.10
2017-08-01T15:24:52.298Z,23.90
2017-08-01T15:27:19.229Z,23.90
2017-08-01T15:29:46.190Z,23.70
2017-08-01T15:32:13.051Z,23.30
2017-08-01T15:34:39.895Z,23.40
2017-08-01T15:37:06.828Z,23.10
2017-08-01T15:39:33.689Z,23.30
2017-08-01T15:42:00.568Z,23.50
2017-08-01T15:44:28.219Z,23.20
2017-08-01T15:46:55.837Z,23.50
2017-08-01T15:49:22.771Z,23.50
2017-08-01T15:51:49.635Z,23.30
2017-08-01T15:54:16.549Z,23.50
2017-08-01T15:56:43.498Z,23.70
2017-08-01T15:59:10.339Z,23.50
2017-08-01T16:01:37.367Z,23.50
2017-08-01T16:04:05.018Z,23.80
2017-08-01T16:06:32.635Z,24.10
2017-08-01T16:08:59.572Z,24.00
2017-08-01T16:11:26.503Z,24.20
2017-08-01T16:13:53.366Z,24.50
2017-08-01T16:16:20.296Z,24.60
2017-08-01T16:18:47.160Z,24.60
2017-08-01T16:21:14.488Z,24.70
2017-08-01T16:23:41.366Z,24.70
2017-08-01T16:26:08.255Z,24.70
2017-08-01T16:28:35.932Z,24.40
2017-08-01T16:31:02.851Z,24.40
2017-08-01T16:33:29.832Z,24.30
2017-08-01T16:35:56.803Z,23.80
2017-08-01T16:38:23.663Z,23.60
2017-08-01T16:40:50.603Z,24.00
2017-08-01T16:43:17.463Z,24.20
2017-08-01T16:45:44.455Z,24.50
2017-08-01T16:48:11.397Z,24.60
2017-08-01T16:50:38.992Z,24.80
2017-08-01T16:53:05.936Z,24.80
2017-08-01T16:55:32.806Z,24.90
2017-08-01T16:57:59.670Z,25.00
2017-08-01T17:00:27.452Z,25.30
2017-08-01T17:02:55.129Z,25.30
2017-08-01T17:05:22.051Z,25.20
2017-08-01T17:07:49.732Z,25.40
2017-08-01T17:10:16.584Z,25.40
2017-08-01T17:12:47.020Z,25.30
2017-08-01T17:15:14.003Z,25.20
2017-08-01T17:17:41.085Z,25.20
2017-08-01T17:20:08.022Z,25.20
2017-08-01T17:22:34.956Z,25.10
2017-08-01T17:25:01.831Z,25.10
2017-08-01T17:27:29.729Z,25.10
2017-08-01T17:29:56.608Z,25.10
2017-08-01T17:32:23.553Z,25.10
2017-08-01T17:34:50.391Z,25.20
2017-08-01T17:37:17.300Z,25.20
2017-08-01T17:39:44.241Z,25.30
2017-08-01T17:42:11.083Z,25.20
2017-08-01T17:44:37.950Z,25.20
2017-08-01T17:47:04.888Z,25.20
2017-08-01T17:49:31.830Z,25.20
2017-08-01T17:51:58.814Z,25.10
2017-08-01T17:54:25.775Z,25.20
2017-08-01T17:56:52.640Z,25.20
2017-08-01T17:59:20.284Z,25.10
2017-08-01T18:01:47.259Z,25.10
2017-08-01T18:04:14.868Z,25.00
2017-08-01T18:06:41.790Z,25.00
2017-08-01T18:09:08.716Z,25.00
2017-08-01T18:11:35.672Z,25.00
2017-08-01T18:14:02.603Z,24.90
2017-08-01T18:16:30.309Z,24.80
2017-08-01T18:18:57.167Z,24.80
2017-08-01T18:21:24.099Z,24.70
2017-08-01T18:23:50.954Z,24.60
2017-08-01T18:26:17.900Z,24.60
2017-08-01T18:28:44.859Z,24.60
2017-08-01T18:31:11.741Z,24.60
2017-08-01T18:33:38.595Z,24.60
2017-08-01T18:36:05.535Z,24.60
2017-08-01T18:38:32.414Z,24.50
2017-08-01T18:40:59.272Z,24.50
2017-08-01T18:43:26.192Z,24.50
2017-08-01T18:45:53.046Z,24.40
2017-08-01T18:48:19.985Z,24.30
2017-08-01T18:50:46.885Z,24.30
2017-08-01T18:53:14.492Z,24.30
2017-08-01T18:55:41.439Z,24.30
2017-08-01T18:58:08.400Z,24.30
2017-08-01T19:00:35.416Z,24.30
2017-08-01T19:03:02.326Z,24.30
2017-08-01T19:05:29.185Z,24.30
2017-08-01T19:07:56.846Z,24.20
2017-08-01T19:10:24.572Z,24.20
2017-08-01T19:12:51.448Z,24.20
2017-08-01T19:15:19.134Z,24.10
2017-08-01T19:17:46.067Z,24.00
2017-08-01T19:20:13.691Z,23.90
2017-08-01T19:22:40.561Z,23.90
2017-08-01T19:25:07.499Z,23.80
2017-08-01T19:27:34.341Z,23.70
2017-08-01T19:30:01.208Z,23.70
2017-08-01T19:32:28.885Z,23.50
2017-08-01T19:34:55.772Z,23.50
2017-08-01T19:37:22.717Z,23.60
2017-08-01T19:39:49.578Z,23.60
2017-08-01T19:42:16.449Z,23.60
2017-08-01T19:44:44.177Z,23.60
2017-08-01T19:47:11.062Z,23.60
2017-08-01T19:49:38.698Z,23.60
2017-08-01T19:52:05.528Z,23.60
2017-08-01T19:54:32.525Z,23.20
2017-08-01T19:56:59.376Z,23.20
2017-08-01T19:59:26.220Z,23.30
2017-08-01T20:01:53.161Z,23.30
2017-08-01T20:04:20.040Z,23.30
2017-08-01T20:06:46.992Z,23.20
2017-08-01T20:09:13.990Z,23.40
2017-08-01T20:11:41.600Z,23.40
2017-08-01T20:14:08.547Z,23.30
2017-08-01T20:16:35.473Z,23.30
2017-08-01T20:19:02.333Z,23.20
2017-08-01T20:21:29.275Z,23.20
2017-08-01T20:23:56.136Z,23.10
2017-08-01T20:26:22.986Z,23.10
2017-08-01T20:28:49.900Z,23.00
2017-08-01T20:31:16.877Z,23.00
2017-08-01T20:33:43.835Z,22.90
2017-08-01T20:36:10.686Z,22.80
2017-08-01T20:38:38.355Z,22.70
2017-08-01T20:41:05.221Z,22.70
2017-08-01T20:43:32.076Z,22.70
2017-08-01T20:45:59.067Z,22.60
2017-08-01T20:48:25.926Z,22.70
2017-08-01T20:50:52.912Z,22.60
2017-08-01T20:53:19.811Z,22.60
2017-08-01T20:55:46.711Z,22.60
2017-08-01T20:58:13.639Z,22.60
2017-08-01T21:00:40.486Z,22.60
2017-08-01T21:03:07.402Z,22.60
2017-08-01T21:05:34.267Z,22.60
2017-08-01T21:08:04.048Z,22.60
2017-08-01T21:10:30.897Z,22.60
2017-08-01T21:12:57.767Z,22.50
2017-08-01T21:15:24.711Z,22.50
2017-08-01T21:17:51.624Z,22.50
2017-08-01T21:20:18.492Z,22.40
2017-08-01T21:22:45.447Z,22.40
2017-08-01T21:25:13.040Z,22.50
2017-08-01T21:27:39.968Z,22.50
2017-08-01T21:30:07.582Z,22.60
2017-08-01T21:32:34.454Z,22.60
2017-08-01T21:35:01.404Z,22.50
2017-08-01T21:37:28.252Z,22.50
2017-08-01T21:39:55.170Z,22.50
2017-08-01T21:42:22.032Z,22.60
2017-08-01T21:44:48.947Z,22.50
2017-08-01T21:47:15.888Z,22.50
2017-08-01T21:49:42.780Z,22.50
2017-08-01T21:52:09.691Z,22.40
2017-08-01T21:54:36.542Z,22.40
2017-08-01T21:57:03.445Z,22.40
2017-08-01T21:59:30.289Z,22.40
2017-08-01T22:01:57.266Z,22.40
2017-08-01T22:04:24.187Z,22.30
2017-08-01T22:06:51.131Z,22.30
2017-08-01T22:09:18.066Z,22.30
2017-08-01T22:29:06.479Z,22.00
2017-08-01T22:31:33.411Z,22.10
2017-08-01T22:34:00.365Z,22.00
2017-08-01T22:36:27.275Z,22.00
2017-08-01T22:38:54.112Z,22.10
2017-08-01T22:41:21.808Z,22.20
2017-08-01T22:43:48.666Z,22.10
2017-08-01T22:46:15.569Z,22.20
2017-08-01T22:48:42.531Z,22.20
2017-08-01T22:51:09.404Z,22.20
2017-08-01T22:53:36.339Z,22.20
2017-08-01T22:56:03.258Z,22.20
2017-08-01T22:58:30.107Z,22.20
2017-08-01T23:00:57.039Z,22.20
2017-08-01T23:03:24.626Z,22.10
2017-08-01T23:05:51.479Z,22.10
2017-08-01T23:08:18.395Z,22.10
2017-08-01T23:10:45.310Z,22.10
2017-08-01T23:13:12.177Z,22.10
2017-08-01T23:15:39.844Z,22.10
2017-08-01T23:18:07.356Z,22.10
2017-08-01T23:20:34.229Z,22.20
2017-08-01T23:23:01.879Z,22.20
2017-08-01T23:25:28.707Z,22.20
2017-08-01T23:27:55.661Z,22.20
2017-08-01T23:30:22.503Z,22.20
2017-08-01T23:32:49.413Z,22.20
2017-08-01T23:35:16.331Z,22.10
2017-08-01T23:37:43.985Z,22.10
2017-08-01T23:40:11.607Z,22.00
2017-08-01T23:42:38.453Z,22.00
2017-08-01T23:45:05.363Z,22.10
2017-08-01T23:47:32.221Z,22.10
2017-08-01T23:49:59.123Z,22.10
2017-08-01T23:52:26.744Z,22.00
2017-08-01T23:54:53.684Z,22.00
2017-08-01T23:57:20.620Z,22.00
2017-08-01T23:59:47.488Z,21.90
